Time;durP1;ratioP1;P1;durP2;ratioP2;P2;SDS_P1;SDS_P2;PMS_P1;PMS_P2;Temp;Humidity;BMP_temperature;BMP_pressure;BME280_temperature;BME280_humidity;BME280_pressure;Samples;Min_cycle;Max_cycle;Signal;HPM_P1;HPM_P2
2022/04/24 00:01:56;;;;;;;9.25;8.13;;;;;;;9.28;87.60;98601.16;1634342;85;21067;-73
2022/04/24 00:04:24;;;;;;;10.93;8.43;;;;;;;9.27;87.73;98604.22;1676792;84;21139;-74
2022/04/24 00:06:53;;;;;;;11.05;9.13;;;;;;;9.26;87.91;98614.34;1677549;84;21081;-73
2022/04/24 00:09:21;;;;;;;8.60;7.70;;;;;;;9.23;88.18;98606.59;1684662;84;21787;-73
2022/04/24 00:11:48;;;;;;;11.55;9.63;;;;;;;9.20;88.17;98605.41;1679775;84;21654;-73
2022/04/24 00:14:17;;;;;;;10.13;8.68;;;;;;;9.20;88.37;98597.54;1680306;84;21124;-73
2022/04/24 00:16:46;;;;;;;13.88;9.60;;;;;;;9.21;88.32;98597.07;1684083;84;21139;-72
2022/04/24 00:19:15;;;;;;;12.98;9.98;;;;;;;9.22;88.34;98597.01;1672069;84;21022;-73
2022/04/24 00:21:42;;;;;;;10.55;9.28;;;;;;;9.23;88.40;98596.10;1677864;84;21874;-73
2022/04/24 00:24:08;;;;;;;13.28;10.35;;;;;;;9.23;88.35;98596.53;1677613;84;21526;-73
2022/04/24 00:26:35;;;;;;;11.70;9.65;;;;;;;9.22;88.38;98597.01;1683727;84;21120;-73
2022/04/24 00:29:02;;;;;;;16.73;11.20;;;;;;;9.25;88.44;98596.88;1676172;84;21581;-72
2022/04/24 00:31:29;;;;;;;13.00;9.83;;;;;;;9.28;88.43;98596.75;1676352;84;21020;-73
2022/04/24 00:33:56;;;;;;;16.27;10.93;;;;;;;9.27;88.45;98592.41;1679362;84;21741;-73
2022/04/24 00:36:24;;;;;;;14.05;10.93;;;;;;;9.25;88.45;98583.75;1670228;84;21393;-72
2022/04/24 00:38:51;;;;;;;12.85;9.98;;;;;;;9.29;88.42;98580.06;1675966;84;21108;-72
2022/04/24 00:41:17;;;;;;;13.70;9.93;;;;;;;9.33;88.39;98579.92;1679754;84;21219;-72
2022/04/24 00:43:53;;;;;;;14.18;10.38;;;;;;;9.38;88.43;98580.57;1679737;84;21089;-73
2022/04/24 00:46:57;;;;;;;16.07;10.55;;;;;;;9.42;88.29;98575.59;1665338;84;21313;-73
2022/04/24 00:49:24;;;;;;;14.98;10.25;;;;;;;9.45;88.09;98593.84;1675042;84;21532;-73
2022/04/24 00:51:53;;;;;;;12.28;10.13;;;;;;;9.40;88.05;98595.82;1673714;84;21061;-72
2022/04/24 00:54:19;;;;;;;14.55;11.08;;;;;;;9.34;88.16;98595.61;1665615;84;21664;-73
2022/04/24 00:56:47;;;;;;;12.65;10.28;;;;;;;9.32;88.31;98597.93;1677784;84;21072;-73
2022/04/24 00:59:15;;;;;;;14.50;10.23;;;;;;;9.30;88.43;98600.63;1675634;84;21309;-74
2022/04/24 01:01:42;;;;;;;15.63;9.98;;;;;;;9.26;88.58;98597.28;1673579;84;21108;-74
2022/04/24 01:04:11;;;;;;;13.30;9.80;;;;;;;9.24;88.71;98599.09;1680348;84;21755;-73
2022/04/24 01:06:42;;;;;;;12.55;9.48;;;;;;;9.21;88.95;98593.13;1685317;84;21120;-73
2022/04/24 01:09:21;;;;;;;10.53;9.28;;;;;;;9.17;89.02;98597.67;1675561;84;21533;-73
2022/04/24 01:11:51;;;;;;;8.98;7.35;;;;;;;9.15;89.10;98592.95;1670798;84;21144;-73
2022/04/24 01:14:19;;;;;;;10.38;7.60;;;;;;;9.13;89.10;98588.67;1686586;83;21225;-74
2022/04/24 01:16:46;;;;;;;8.95;7.60;;;;;;;9.08;89.21;98591.52;1712325;83;21146;-74
2022/04/24 01:19:15;;;;;;;9.30;7.70;;;;;;;9.06;89.19;98590.27;1717713;83;21066;-74
2022/04/24 01:21:44;;;;;;;8.73;6.87;;;;;;;9.06;89.21;98584.16;1689352;83;21023;-75
2022/04/24 01:24:16;;;;;;;10.35;6.92;;;;;;;9.07;89.14;98589.80;1695882;83;21308;-75
2022/04/24 01:26:42;;;;;;;7.53;6.50;;;;;;;9.07;89.07;98585.88;1667590;84;21083;-74
2022/04/24 01:29:11;;;;;;;8.93;6.65;;;;;;;9.04;88.94;98589.94;1676809;84;21027;-75
2022/04/24 01:31:39;;;;;;;7.50;6.70;;;;;;;9.02;88.84;98586.53;1688303;84;22119;-74
2022/04/24 01:34:05;;;;;;;7.92;7.12;;;;;;;8.98;88.81;98584.94;1682393;84;22131;-74
2022/04/24 01:36:31;;;;;;;7.97;7.03;;;;;;;8.93;88.85;98587.31;1690806;83;21039;-75
2022/04/24 01:39:00;;;;;;;7.70;6.92;;;;;;;8.92;88.91;98592.16;1713977;82;21044;-72
2022/04/24 01:41:28;;;;;;;9.10;7.05;;;;;;;8.93;88.93;98588.63;1707499;83;21067;-73
2022/04/24 01:43:55;;;;;;;8.25;7.10;;;;;;;8.92;88.87;98585.59;1717768;83;21071;-74
2022/04/24 01:46:21;;;;;;;12.15;8.40;;;;;;;8.93;88.90;98591.25;1715719;83;21145;-73
2022/04/24 01:48:50;;;;;;;8.80;7.92;;;;;;;8.93;88.92;98595.66;1693833;83;22546;-74
2022/04/24 01:51:17;;;;;;;9.30;7.60;;;;;;;8.92;88.92;98591.31;1697601;83;21648;-73
2022/04/24 01:53:44;;;;;;;10.45;8.43;;;;;;;8.93;88.92;98593.88;1697550;82;21031;-73
2022/04/24 01:56:12;;;;;;;11.55;8.80;;;;;;;8.92;88.93;98593.47;1675310;83;21116;-74
2022/04/24 01:58:39;;;;;;;12.50;9.53;;;;;;;8.89;89.04;98596.25;1658236;85;22034;-73
2022/04/24 02:01:07;;;;;;;11.95;8.53;;;;;;;8.88;89.07;98595.84;1629972;87;21292;-73
2022/04/24 02:03:35;;;;;;;14.50;9.28;;;;;;;8.88;89.08;98593.69;1630649;87;21074;-73
2022/04/24 02:06:04;;;;;;;14.65;10.08;;;;;;;8.87;89.15;98594.12;1656685;86;21063;-73
2022/04/24 02:08:35;;;;;;;13.50;9.70;;;;;;;8.87;89.22;98597.22;1657869;86;21013;-74
2022/04/24 02:11:04;;;;;;;10.93;8.80;;;;;;;8.86;89.24;98596.81;1657732;84;21609;-74
2022/04/24 02:13:31;;;;;;;13.70;9.03;;;;;;;8.87;89.31;98600.69;1658593;85;21167;-73
2022/04/24 02:15:57;;;;;;;11.50;9.63;;;;;;;8.85;89.37;98599.91;1655075;84;21121;-74
2022/04/24 02:18:25;;;;;;;18.23;9.53;;;;;;;8.82;89.53;98603.96;1673344;84;21081;-73
2022/04/24 02:20:52;;;;;;;14.53;10.10;;;;;;;8.82;89.64;98610.52;1680489;84;21022;-74
2022/04/24 02:23:18;;;;;;;15.50;10.18;;;;;;;8.84;89.67;98612.64;1668906;84;21088;-74
2022/04/24 02:25:46;;;;;;;12.60;9.50;;;;;;;8.84;89.69;98613.95;1676378;84;21069;-73
2022/04/24 02:28:15;;;;;;;12.30;9.13;;;;;;;8.85;89.72;98618.73;1656659;86;21159;-74
2022/04/24 02:30:41;;;;;;;14.50;9.48;;;;;;;8.86;89.75;98617.36;1621718;87;21112;-74
2022/04/24 02:33:09;;;;;;;14.05;9.60;;;;;;;8.90;89.71;98609.73;1664671;84;21717;-74
2022/04/24 02:35:35;;;;;;;16.02;9.45;;;;;;;8.94;89.62;98611.77;1656086;86;21667;-74
2022/04/24 02:38:02;;;;;;;13.95;9.43;;;;;;;8.93;89.58;98620.58;1622730;87;22149;-73
2022/04/24 02:40:30;;;;;;;12.58;9.80;;;;;;;8.96;89.55;98618.27;1628694;87;21134;-73
2022/04/24 02:42:58;;;;;;;14.60;10.40;;;;;;;8.95;89.50;98622.67;1684834;84;21139;-72
2022/04/24 02:45:24;;;;;;;16.40;10.28;;;;;;;8.96;89.49;98624.39;1682898;84;21219;-73
2022/04/24 02:47:52;;;;;;;15.63;10.58;;;;;;;8.94;89.47;98631.45;1657705;85;21110;-74
2022/04/24 02:50:18;;;;;;;17.27;10.18;;;;;;;8.91;89.50;98628.51;1662139;84;21131;-74
2022/04/24 02:52:51;;;;;;;18.73;11.53;;;;;;;8.89;89.54;98632.98;1678392;84;21949;-74
2022/04/24 02:55:19;;;;;;;15.53;11.05;;;;;;;8.90;89.60;98644.31;1669962;84;21721;-73
2022/04/24 02:57:46;;;;;;;19.42;11.33;;;;;;;8.88;89.60;98648.31;1647525;84;21074;-74
2022/04/24 03:00:19;;;;;;;17.62;11.35;;;;;;;8.86;89.64;98655.83;1683604;84;21163;-73
2022/04/24 03:02:47;;;;;;;19.05;12.13;;;;;;;8.86;89.68;98651.90;1679939;84;21560;-74
2022/04/24 03:05:19;;;;;;;17.65;11.65;;;;;;;8.87;89.70;98663.64;1642203;84;21512;-74
2022/04/24 03:07:47;;;;;;;17.35;11.90;;;;;;;8.85;89.69;98664.17;1672763;84;22428;-74
2022/04/24 03:10:20;;;;;;;20.12;12.13;;;;;;;8.83;89.75;98669.10;1628115;87;49086;-73
2022/04/24 03:12:46;;;;;;;16.52;11.22;;;;;;;8.81;89.82;98667.85;1656679;86;21130;-74
2022/04/24 03:15:14;;;;;;;16.97;11.08;;;;;;;8.79;89.90;98669.66;1682247;84;21677;-74
2022/04/24 03:17:42;;;;;;;20.12;12.43;;;;;;;8.79;89.95;98671.44;1683362;84;21568;-73
2022/04/24 03:20:10;;;;;;;16.62;11.90;;;;;;;8.79;90.02;98673.59;1658542;85;21566;-73
2022/04/24 03:22:37;;;;;;;22.70;12.63;;;;;;;8.77;90.06;98676.73;1671459;84;21592;-73
2022/04/24 03:25:07;;;;;;;17.67;11.22;;;;;;;8.78;90.11;98683.70;1676598;84;21370;-73
2022/04/24 03:27:38;;;;;;;16.27;12.07;;;;;;;8.78;90.14;98687.64;1703173;82;21114;-74
2022/04/24 03:30:07;;;;;;;18.48;11.85;;;;;;;8.78;90.22;98690.73;1689612;83;21122;-73
2022/04/24 03:32:34;;;;;;;24.60;12.88;;;;;;;8.80;90.26;98694.98;1664234;83;21122;-73
2022/04/24 03:35:04;;;;;;;20.90;12.90;;;;;;;8.79;90.25;98698.51;1685587;83;21705;-73
2022/04/24 03:37:32;;;;;;;21.55;13.00;;;;;;;8.80;90.22;98704.16;1686117;83;21170;-74
2022/04/24 03:39:59;;;;;;;16.20;11.63;;;;;;;8.80;90.33;98709.41;1688814;83;21961;-74
2022/04/24 03:42:28;;;;;;;16.05;11.28;;;;;;;8.81;90.37;98715.06;1649163;85;21135;-73
2022/04/24 03:44:56;;;;;;;17.77;11.08;;;;;;;8.81;90.34;98712.87;1662910;84;21103;-74
2022/04/24 03:47:24;;;;;;;15.40;10.32;;;;;;;8.79;90.37;98711.63;1681698;84;21083;-74
2022/04/24 03:49:53;;;;;;;15.80;10.13;;;;;;;8.79;90.33;98714.25;1683179;84;21114;-74
2022/04/24 03:52:19;;;;;;;14.65;10.30;;;;;;;8.78;90.29;98710.41;1706465;82;21108;-73
2022/04/24 03:54:46;;;;;;;15.20;9.78;;;;;;;8.77;90.32;98718.70;1702456;83;21110;-74
2022/04/24 03:57:14;;;;;;;14.10;10.00;;;;;;;8.76;90.26;98720.95;1692983;83;21110;-72
2022/04/24 03:59:41;;;;;;;14.83;9.98;;;;;;;8.76;90.25;98718.33;1704446;83;21070;-73
2022/04/24 04:02:08;;;;;;;21.80;10.65;;;;;;;8.75;90.28;98723.17;1705286;83;21034;-74
2022/04/24 04:04:34;;;;;;;15.93;11.15;;;;;;;8.75;90.30;98721.86;1690367;83;22293;-74
2022/04/24 04:07:02;;;;;;;15.68;9.80;;;;;;;8.77;90.32;98727.05;1690515;84;21745;-74
2022/04/24 04:09:30;;;;;;;14.70;10.40;;;;;;;8.78;90.23;98730.92;1684009;84;21103;-73
2022/04/24 04:11:58;;;;;;;17.55;10.82;;;;;;;8.79;90.18;98734.39;1679023;84;21686;-74
2022/04/24 04:14:26;;;;;;;15.25;10.50;;;;;;;8.76;90.13;98735.37;1677627;84;21077;-73
2022/04/24 04:16:53;;;;;;;13.75;9.00;;;;;;;8.75;90.15;98737.59;1677981;84;21132;-73
2022/04/24 04:19:19;;;;;;;11.03;9.25;;;;;;;8.74;89.88;98745.92;1677115;84;21092;-73
2022/04/24 04:21:46;;;;;;;13.50;9.50;;;;;;;8.72;89.29;98746.45;1679810;84;21117;-72
2022/04/24 04:24:13;;;;;;;12.50;9.50;;;;;;;8.67;88.97;98747.53;1676148;84;21354;-73
2022/04/24 04:26:40;;;;;;;13.43;9.13;;;;;;;8.63;88.91;98749.89;1681880;84;21153;-73
2022/04/24 04:29:06;;;;;;;10.55;8.68;;;;;;;8.61;88.80;98755.19;1676734;84;21170;-73
2022/04/24 04:31:34;;;;;;;9.65;8.33;;;;;;;8.59;88.60;98762.27;1677930;84;21088;-73
2022/04/24 04:34:02;;;;;;;11.12;8.53;;;;;;;8.54;88.42;98759.81;1673409;84;21196;-74
2022/04/24 04:36:31;;;;;;;10.60;8.13;;;;;;;8.51;88.53;98767.80;1678173;84;21038;-73
2022/04/24 04:38:57;;;;;;;9.75;7.85;;;;;;;8.51;88.54;98763.86;1674443;84;21109;-72
2022/04/24 04:41:25;;;;;;;8.23;7.22;;;;;;;8.52;88.33;98768.64;1684529;84;21136;-73
2022/04/24 04:43:53;;;;;;;8.35;7.40;;;;;;;8.53;88.01;98767.73;1675774;84;21144;-73
2022/04/24 04:46:20;;;;;;;9.40;7.20;;;;;;;8.52;87.43;98772.14;1673324;84;21551;-73
2022/04/24 04:48:48;;;;;;;7.30;6.35;;;;;;;8.51;87.02;98775.66;1677445;84;21018;-72
2022/04/24 04:51:15;;;;;;;8.28;6.30;;;;;;;8.52;86.37;98785.25;1678526;84;21135;-73
2022/04/24 04:53:43;;;;;;;7.92;6.28;;;;;;;8.52;86.04;98786.55;1676895;84;21770;-73
2022/04/24 04:56:10;;;;;;;7.12;6.42;;;;;;;8.49;85.89;98789.72;1679549;84;21611;-73
2022/04/24 04:58:38;;;;;;;7.70;6.37;;;;;;;8.47;85.61;98789.81;1674127;84;21101;-73
2022/04/24 05:01:06;;;;;;;7.92;6.08;;;;;;;8.47;85.58;98789.81;1684385;84;21069;-73
2022/04/24 05:03:34;;;;;;;6.85;6.15;;;;;;;8.50;85.81;98792.29;1666059;84;21631;-74
2022/04/24 05:06:02;;;;;;;6.17;5.60;;;;;;;8.53;85.47;98794.80;1672975;84;20967;-74
2022/04/24 05:08:29;;;;;;;7.12;6.35;;;;;;;8.58;85.03;98793.79;1677271;84;21021;-73
2022/04/24 05:10:57;;;;;;;5.20;4.67;;;;;;;8.64;84.56;98796.16;1672152;84;21082;-73
2022/04/24 05:13:23;;;;;;;7.60;5.45;;;;;;;8.69;83.94;98797.70;1677064;84;21100;-74
2022/04/24 05:15:51;;;;;;;5.80;5.30;;;;;;;8.74;83.47;98800.12;1678608;84;21095;-75
2022/04/24 05:18:19;;;;;;;5.35;4.90;;;;;;;8.80;83.54;98806.46;1649823;84;21141;-74
2022/04/24 05:20:47;;;;;;;5.45;4.92;;;;;;;8.89;83.05;98800.88;1680433;84;21377;-73
2022/04/24 05:23:15;;;;;;;5.20;4.78;;;;;;;8.96;81.33;98804.11;1687535;84;21130;-73
2022/04/24 05:25:41;;;;;;;5.20;4.75;;;;;;;8.97;80.60;98801.02;1675456;84;21151;-75
2022/04/24 05:28:09;;;;;;;5.40;4.90;;;;;;;8.97;80.44;98807.58;1660392;85;21094;-75
2022/04/24 05:30:36;;;;;;;6.12;4.58;;;;;;;8.98;79.98;98811.45;1647350;86;21264;-73
2022/04/24 05:33:04;;;;;;;5.83;4.97;;;;;;;9.01;79.77;98810.47;1632363;87;21188;-74
2022/04/24 05:35:31;;;;;;;5.80;5.20;;;;;;;9.03;79.21;98788.98;1631767;87;21083;-73
2022/04/24 05:37:58;;;;;;;5.33;4.83;;;;;;;9.05;79.50;98799.80;1621299;86;21020;-73
2022/04/24 05:40:26;;;;;;;6.90;6.25;;;;;;;9.13;79.96;98802.56;1623556;87;21068;-74
2022/04/24 05:42:54;;;;;;;7.55;5.60;;;;;;;9.18;79.69;98800.60;1632426;87;21218;-74
2022/04/24 05:45:24;;;;;;;5.60;5.10;;;;;;;9.25;79.43;98808.18;1633095;87;21198;-74
2022/04/24 05:47:56;;;;;;;7.42;5.65;;;;;;;9.30;79.00;98807.53;1675097;84;21035;-75
2022/04/24 05:50:25;;;;;;;5.90;5.40;;;;;;;9.37;79.05;98809.45;1663090;85;21032;-73
2022/04/24 05:52:56;;;;;;;6.17;5.67;;;;;;;9.42;79.17;98813.20;1651816;84;21020;-75
2022/04/24 05:55:24;;;;;;;6.15;5.70;;;;;;;9.48;79.13;98811.18;1653402;84;21100;-75
2022/04/24 05:57:54;;;;;;;6.80;5.78;;;;;;;9.57;78.19;98815.19;1655387;85;21487;-75
2022/04/24 06:00:21;;;;;;;7.28;6.58;;;;;;;9.59;77.37;98813.34;1660164;84;21138;-74
2022/04/24 06:02:49;;;;;;;7.45;6.75;;;;;;;9.60;76.61;98828.20;1692152;84;21060;-73
2022/04/24 06:05:16;;;;;;;8.95;7.42;;;;;;;9.66;75.18;98820.05;1675365;84;21121;-75
2022/04/24 06:07:43;;;;;;;7.95;7.15;;;;;;;9.71;74.34;98815.07;1673456;84;21599;-74
2022/04/24 06:10:11;;;;;;;8.43;7.50;;;;;;;9.80;73.83;98829.11;1669720;84;21604;-75
2022/04/24 06:12:51;;;;;;;9.55;8.55;;;;;;;9.88;71.54;98829.64;1678675;84;21086;-75
2022/04/24 06:15:21;;;;;;;8.33;7.53;;;;;;;9.89;71.99;98820.86;1676747;84;21132;-75
2022/04/24 06:17:50;;;;;;;8.15;7.28;;;;;;;9.95;71.67;98823.67;1670609;84;20991;-75
2022/04/24 06:20:17;;;;;;;8.03;7.22;;;;;;;9.97;72.10;98821.38;1679179;84;21552;-75
2022/04/24 06:22:56;;;;;;;7.25;6.55;;;;;;;10.02;72.04;98822.03;1677070;84;21296;-75
2022/04/24 06:25:26;;;;;;;6.92;6.30;;;;;;;10.09;71.20;98817.83;1679477;84;21062;-75
2022/04/24 06:27:54;;;;;;;8.38;7.45;;;;;;;10.14;69.75;98826.38;1686419;84;21089;-75
2022/04/24 06:30:24;;;;;;;12.58;7.87;;;;;;;10.15;70.48;98823.64;1682167;84;21040;-74
2022/04/24 06:32:50;;;;;;;8.65;7.83;;;;;;;10.22;70.74;98825.55;1680882;84;21089;-75
2022/04/24 06:35:18;;;;;;;8.80;7.90;;;;;;;10.29;69.60;98823.50;1674433;84;21160;-76
2022/04/24 06:37:47;;;;;;;8.60;7.17;;;;;;;10.35;68.85;98832.00;1686271;84;21188;-74
2022/04/24 06:40:16;;;;;;;9.15;6.60;;;;;;;10.46;69.20;98826.28;1676153;84;21089;-75
2022/04/24 06:43:04;;;;;;;8.15;7.30;;;;;;;10.54;66.90;98833.80;1681159;84;21084;-74
2022/04/24 06:45:40;;;;;;;8.33;7.40;;;;;;;10.65;67.35;98836.80;1649144;84;21639;-74
2022/04/24 06:48:13;;;;;;;10.23;8.18;;;;;;;10.77;65.32;98830.97;1674885;84;21669;-75
2022/04/24 06:50:42;;;;;;;7.80;7.10;;;;;;;10.86;65.89;98836.73;1678829;84;21088;-75
2022/04/24 06:53:18;;;;;;;9.30;7.33;;;;;;;10.98;63.67;98841.44;1678347;84;21068;-74
2022/04/24 06:55:47;;;;;;;7.65;6.75;;;;;;;11.02;63.92;98840.36;1668077;84;21592;-73
2022/04/24 06:58:17;;;;;;;8.00;7.20;;;;;;;11.01;63.63;98839.11;1681426;84;21147;-76
2022/04/24 07:00:44;;;;;;;8.63;7.72;;;;;;;11.00;62.18;98848.80;1677613;84;21607;-74
2022/04/24 07:03:20;;;;;;;8.38;7.58;;;;;;;10.95;62.76;98841.11;1669707;84;21072;-74
2022/04/24 07:05:48;;;;;;;10.08;9.10;;;;;;;11.02;63.50;98846.94;1677229;84;21077;-74
2022/04/24 07:08:14;;;;;;;11.18;8.50;;;;;;;11.07;63.08;98834.41;1669873;84;22391;-74
2022/04/24 07:10:42;;;;;;;10.88;8.10;;;;;;;11.16;62.52;98842.32;1674311;84;21223;-74
2022/04/24 07:13:10;;;;;;;8.85;8.05;;;;;;;11.23;58.24;98834.98;1680919;83;21119;-74
2022/04/24 07:15:40;;;;;;;9.25;8.35;;;;;;;11.27;57.80;98832.14;1692458;83;21113;-74
2022/04/24 07:18:08;;;;;;;9.33;8.13;;;;;;;11.32;58.41;98837.19;1697810;82;21486;-74
2022/04/24 07:20:36;;;;;;;11.48;7.92;;;;;;;11.43;57.65;98839.28;1685886;84;21082;-73
2022/04/24 07:23:07;;;;;;;7.53;6.75;;;;;;;11.57;56.43;98846.53;1702620;83;21019;-73
2022/04/24 07:25:40;;;;;;;6.97;6.28;;;;;;;11.64;53.54;98849.24;1688271;83;21030;-74
2022/04/24 07:28:11;;;;;;;7.12;6.50;;;;;;;11.67;53.30;98845.14;1678633;84;21144;-73
2022/04/24 07:30:40;;;;;;;8.83;7.37;;;;;;;11.74;52.68;98849.17;1683696;84;21621;-74
2022/04/24 07:33:08;;;;;;;8.73;6.75;;;;;;;11.93;52.80;98853.07;1654922;85;21074;-73
2022/04/24 07:35:37;;;;;;;7.87;7.08;;;;;;;11.95;50.87;98849.88;1685911;84;21158;-74
2022/04/24 07:38:04;;;;;;;8.15;7.05;;;;;;;11.97;52.19;98851.13;1698430;83;20992;-74
2022/04/24 07:40:35;;;;;;;7.33;6.08;;;;;;;12.00;50.48;98852.30;1690524;83;21605;-73
2022/04/24 07:43:04;;;;;;;6.25;5.67;;;;;;;11.93;50.25;98854.86;1674656;84;21138;-73
2022/04/24 07:45:41;;;;;;;6.40;5.60;;;;;;;11.90;51.56;98858.02;1630144;85;21643;-73
2022/04/24 07:48:10;;;;;;;7.12;6.17;;;;;;;11.99;51.41;98870.38;1706434;82;21777;-73
2022/04/24 07:50:43;;;;;;;4.75;4.22;;;;;;;12.06;50.38;98871.77;1708303;83;21146;-73
2022/04/24 07:53:10;;;;;;;4.58;4.17;;;;;;;12.06;47.69;98860.75;1682831;84;21158;-75
2022/04/24 07:55:44;;;;;;;4.60;4.20;;;;;;;12.06;47.57;98873.09;1681410;83;21077;-73
2022/04/24 07:58:11;;;;;;;4.80;4.40;;;;;;;12.08;48.77;98863.30;1660354;84;21031;-73
2022/04/24 08:00:39;;;;;;;4.50;3.80;;;;;;;12.10;45.51;98866.70;1705151;83;21173;-74
2022/04/24 08:03:10;;;;;;;3.80;3.50;;;;;;;12.10;45.93;98856.16;1697280;82;21734;-74
2022/04/24 08:05:45;;;;;;;3.90;3.60;;;;;;;12.06;45.77;98871.30;1693909;83;21609;-74
2022/04/24 08:08:22;;;;;;;4.55;4.17;;;;;;;12.05;47.06;98858.18;1673227;82;21520;-73
2022/04/24 08:10:57;;;;;;;4.10;3.80;;;;;;;12.16;47.92;98851.90;1674965;84;21077;-73
2022/04/24 08:13:25;;;;;;;3.20;3.00;;;;;;;12.30;46.93;98859.56;1681043;84;20945;-73
2022/04/24 08:15:52;;;;;;;3.60;3.30;;;;;;;12.40;48.50;98851.55;1657753;85;21117;-73
2022/04/24 08:18:20;;;;;;;3.67;3.33;;;;;;;12.60;45.25;98860.57;1615813;85;21560;-73
2022/04/24 08:20:49;;;;;;;3.98;3.58;;;;;;;12.75;45.49;98864.17;1650478;86;21096;-73
2022/04/24 08:23:16;;;;;;;4.67;4.28;;;;;;;12.87;46.79;98854.73;1638609;86;21169;-73
2022/04/24 08:25:43;;;;;;;4.50;4.10;;;;;;;13.01;47.05;98857.94;1647500;85;21152;-74
2022/04/24 08:28:12;;;;;;;4.22;3.92;;;;;;;13.09;44.73;98854.88;1641475;85;21031;-74
2022/04/24 08:30:42;;;;;;;4.12;3.62;;;;;;;13.11;46.69;98861.80;1650066;85;21696;-73
2022/04/24 08:33:09;;;;;;;3.98;3.52;;;;;;;13.20;44.40;98861.75;1652406;86;21550;-74
2022/04/24 08:35:36;;;;;;;3.72;3.45;;;;;;;13.22;45.10;98865.15;1630948;87;21178;-76
2022/04/24 08:38:05;;;;;;;3.90;3.60;;;;;;;13.29;44.68;98879.71;1629164;87;21184;-74
2022/04/24 08:40:33;;;;;;;4.33;4.03;;;;;;;13.28;44.81;98862.17;1683185;84;21077;-73
2022/04/24 08:43:00;;;;;;;3.58;3.37;;;;;;;13.25;45.32;98861.02;1672259;84;21136;-72
2022/04/24 08:45:29;;;;;;;3.85;3.55;;;;;;;13.31;44.19;98865.94;1664781;84;21648;-74
2022/04/24 08:47:58;;;;;;;3.83;3.52;;;;;;;13.31;44.08;98865.94;1672453;84;21058;-73
2022/04/24 08:50:30;;;;;;;3.80;3.50;;;;;;;13.28;43.73;98866.14;1680734;84;21888;-73
2022/04/24 08:52:57;;;;;;;3.83;3.62;;;;;;;13.29;45.27;98870.94;1674044;84;21084;-74
2022/04/24 08:55:32;;;;;;;4.10;3.77;;;;;;;13.31;45.21;98856.69;1662757;84;21211;-74
2022/04/24 08:58:01;;;;;;;4.42;4.12;;;;;;;13.41;44.57;98866.79;1656560;84;21076;-72
2022/04/24 09:00:29;;;;;;;4.22;3.90;;;;;;;13.37;44.00;98866.11;1666985;84;21129;-73
2022/04/24 09:03:00;;;;;;;3.52;3.27;;;;;;;13.35;44.06;98860.91;1661683;84;21219;-73
2022/04/24 09:05:30;;;;;;;3.45;3.25;;;;;;;13.35;44.66;98863.55;1671532;84;22633;-72
2022/04/24 09:08:11;;;;;;;3.80;3.52;;;;;;;13.37;44.31;98857.70;1673373;84;21737;-73
2022/04/24 09:10:58;;;;;;;3.77;3.47;;;;;;;13.41;45.42;98862.83;1640771;85;21015;-73
2022/04/24 09:14:14;;;;;;;3.70;3.40;;;;;;;13.48;43.75;98861.53;1632620;85;21750;-73
2022/04/24 09:16:04;;;;;;;3.98;3.60;;;;;;;13.51;43.70;98846.82;1632208;86;21165;-75
2022/04/24 09:18:41;;;;;;;3.30;3.10;;;;;;;13.55;44.22;98866.87;1646476;85;21535;-73
2022/04/24 09:21:12;;;;;;;4.53;3.60;;;;;;;13.53;42.37;98856.83;1647705;86;21102;-74
2022/04/24 09:23:43;;;;;;;4.03;3.72;;;;;;;13.54;43.08;98865.16;1639558;86;21196;-73
2022/04/24 09:26:16;;;;;;;3.72;3.42;;;;;;;13.64;43.13;98868.97;1647192;86;21547;-74
2022/04/24 09:28:43;;;;;;;4.35;3.60;;;;;;;13.75;43.71;98863.92;1644845;85;21554;-73
2022/04/24 09:31:10;;;;;;;4.58;3.10;;;;;;;13.88;43.00;98866.67;1650549;85;21490;-74
2022/04/24 09:33:42;;;;;;;5.10;4.70;;;;;;;13.94;43.49;98855.75;1615368;87;21518;-74
2022/04/24 09:36:11;;;;;;;4.30;3.90;;;;;;;13.92;43.86;98876.16;1651108;85;21217;-74
2022/04/24 09:38:43;;;;;;;4.95;3.58;;;;;;;13.89;43.93;98867.55;1648847;85;21062;-74
2022/04/24 09:41:20;;;;;;;3.55;3.27;;;;;;;13.84;43.51;98872.27;1651510;85;21101;-74
2022/04/24 09:43:48;;;;;;;5.37;4.87;;;;;;;13.82;44.33;98867.51;1640860;85;21145;-73
2022/04/24 09:46:28;;;;;;;3.75;3.45;;;;;;;13.93;46.01;98869.91;1647371;85;21931;-74
2022/04/24 09:49:01;;;;;;;3.22;3.02;;;;;;;14.06;44.43;98870.05;1646041;85;21494;-75
2022/04/24 09:51:28;;;;;;;3.67;3.47;;;;;;;14.06;43.36;98874.48;1658175;85;21245;-74
2022/04/24 09:54:02;;;;;;;5.85;4.00;;;;;;;14.02;44.79;98873.83;1629079;86;21150;-74
2022/04/24 09:56:31;;;;;;;3.90;3.60;;;;;;;14.11;44.49;98870.62;1636050;85;21077;-73
2022/04/24 09:58:57;;;;;;;3.33;3.12;;;;;;;14.22;44.32;98881.03;1644485;85;21156;-74
2022/04/24 10:01:27;;;;;;;5.45;4.33;;;;;;;14.24;43.64;98884.42;1656367;83;21096;-73
2022/04/24 10:03:55;;;;;;;4.58;4.17;;;;;;;14.28;43.45;98876.70;1686367;83;21751;-74
2022/04/24 10:06:23;;;;;;;4.05;3.65;;;;;;;14.24;44.60;98891.91;1681545;84;21439;-74
2022/04/24 10:08:51;;;;;;;3.92;3.62;;;;;;;14.24;44.55;98884.42;1647039;84;21255;-74
2022/04/24 10:11:18;;;;;;;7.05;4.30;;;;;;;14.29;43.90;98887.20;1666086;84;21159;-73
2022/04/24 10:13:46;;;;;;;3.20;3.00;;;;;;;14.30;44.48;98877.45;1685962;84;21092;-74
2022/04/24 10:16:37;;;;;;;3.60;3.40;;;;;;;14.35;43.85;98880.67;1654959;84;21013;-73
2022/04/24 10:19:41;;;;;;;3.92;3.62;;;;;;;14.36;43.55;98875.77;1681853;84;21206;-73
2022/04/24 10:22:32;;;;;;;4.12;3.42;;;;;;;14.39;44.05;98879.56;1690454;84;21224;-74
2022/04/24 10:25:01;;;;;;;4.17;3.87;;;;;;;14.46;44.64;98890.63;1687863;84;21034;-74
2022/04/24 10:27:47;;;;;;;3.77;3.58;;;;;;;14.53;44.99;98880.52;1690606;84;21049;-73
2022/04/24 10:30:23;;;;;;;4.78;4.37;;;;;;;14.67;44.16;98880.53;1681854;84;21083;-74
2022/04/24 10:32:51;;;;;;;4.45;4.10;;;;;;;14.91;43.64;98886.13;1673810;84;21163;-72
2022/04/24 10:35:20;;;;;;;4.45;3.60;;;;;;;15.04;42.26;98886.19;1684431;84;21218;-74
2022/04/24 10:37:49;;;;;;;3.92;3.60;;;;;;;15.01;42.71;98889.02;1673544;84;21202;-73
2022/04/24 10:40:19;;;;;;;4.67;4.28;;;;;;;14.98;44.53;98881.30;1676034;84;21675;-73
2022/04/24 10:42:47;;;;;;;6.47;4.33;;;;;;;15.08;44.80;98888.16;1674871;84;21085;-73
2022/04/24 10:45:16;;;;;;;4.37;3.95;;;;;;;15.15;42.55;98890.34;1650222;84;21747;-73
2022/04/24 10:47:53;;;;;;;3.58;3.15;;;;;;;15.12;42.57;98886.55;1674923;84;22267;-73
2022/04/24 10:50:20;;;;;;;4.08;3.70;;;;;;;15.15;41.84;98890.34;1674193;84;21069;-73
2022/04/24 10:52:55;;;;;;;3.80;3.50;;;;;;;15.17;43.47;98887.11;1677715;84;21041;-73
2022/04/24 10:55:26;;;;;;;3.92;3.62;;;;;;;15.27;44.26;98890.52;1676965;84;21048;-74
2022/04/24 10:57:57;;;;;;;4.62;4.20;;;;;;;15.41;43.36;98879.86;1671107;84;21257;-72
2022/04/24 11:00:35;;;;;;;3.15;2.85;;;;;;;15.55;43.14;98888.23;1669257;84;21058;-73
2022/04/24 11:03:14;;;;;;;4.20;3.80;;;;;;;15.65;43.29;98880.08;1672807;84;21105;-73
2022/04/24 11:05:47;;;;;;;5.28;3.70;;;;;;;15.72;42.45;98888.48;1673627;84;21002;-73
2022/04/24 11:08:20;;;;;;;3.90;3.60;;;;;;;15.66;42.61;98882.25;1678150;84;21063;-74
2022/04/24 11:10:49;;;;;;;3.85;3.50;;;;;;;15.63;41.52;98881.12;1686246;84;21158;-71
2022/04/24 11:13:19;;;;;;;4.53;4.17;;;;;;;15.68;42.28;98885.64;1685700;84;21027;-73
2022/04/24 11:15:48;;;;;;;3.50;3.30;;;;;;;15.71;41.66;98880.14;1668192;84;21700;-74
2022/04/24 11:18:26;;;;;;;3.67;3.37;;;;;;;15.70;41.69;98887.71;1661598;84;21610;-74
2022/04/24 11:21:01;;;;;;;3.30;3.10;;;;;;;15.70;41.57;98875.78;1615124;87;21147;-74
2022/04/24 11:23:33;;;;;;;3.70;3.08;;;;;;;15.78;41.97;98882.78;1666142;85;21069;-75
2022/04/24 11:26:02;;;;;;;3.65;3.10;;;;;;;15.88;40.94;98885.20;1677629;84;21082;-74
2022/04/24 11:28:39;;;;;;;3.83;3.52;;;;;;;15.88;41.09;98881.22;1687795;84;21249;-75
2022/04/24 11:31:17;;;;;;;3.25;3.05;;;;;;;15.94;42.09;98884.80;1662249;84;21182;-74
2022/04/24 11:34:00;;;;;;;7.17;3.50;;;;;;;16.07;40.75;98873.35;1668531;84;21129;-72
2022/04/24 11:36:33;;;;;;;2.92;2.77;;;;;;;16.14;40.51;98874.66;1652062;85;21119;-74
2022/04/24 11:39:05;;;;;;;4.53;2.95;;;;;;;16.26;40.66;98872.97;1680834;84;21147;-73
2022/04/24 11:41:33;;;;;;;7.37;3.23;;;;;;;16.35;40.76;98877.15;1689000;84;21090;-73
2022/04/24 11:50:13;;;;;;;2.83;2.62;;;;;;;16.42;41.05;98878.06;1677672;84;21390;-74
2022/04/24 11:52:08;;;;;;;3.08;2.87;;;;;;;16.23;40.53;98887.29;1685888;84;26019;-73